Time;durP1;ratioP1;P1;durP2;ratioP2;P2;SDS_P1;SDS_P2;PMS_P1;PMS_P2;Temp;Humidity;BMP_temperature;BMP_pressure;BME280_temperature;BME280_humidity;BME280_pressure;Samples;Min_cycle;Max_cycle;Signal;HPM_P1;HPM_P2
2022/06/04 00:04:56;;;;;;;4.13;3.83;;;21.30;39.30;;;;;;10554097;27;20232;-77
2022/06/04 00:15:31;;;;;;;16.87;4.00;;;21.30;39.10;;;;;;10550918;28;20229;-76
2022/06/04 00:20:34;;;;;;;8.10;4.23;;;21.20;39.50;;;;;;10554746;28;20308;-76
2022/06/04 00:25:40;;;;;;;4.00;3.70;;;21.20;38.70;;;;;;10563806;27;20234;-77
2022/06/04 00:30:45;;;;;;;3.27;3.07;;;21.00;39.30;;;;;;10538611;28;20223;-75
2022/06/04 00:35:51;;;;;;;6.53;3.47;;;21.00;39.90;;;;;;10537531;28;20238;-75
2022/06/04 00:41:01;;;;;;;4.07;3.77;;;21.00;40.00;;;;;;10566626;28;20242;-76
2022/06/04 00:46:42;;;;;;;7.57;3.80;;;21.20;40.70;;;;;;10545350;28;20317;-76
2022/06/04 00:51:49;;;;;;;4.40;4.00;;;21.30;40.30;;;;;;10549951;28;20219;-76
2022/06/04 00:56:59;;;;;;;4.17;3.80;;;21.40;40.20;;;;;;10547603;28;20227;-76
2022/06/04 01:02:14;;;;;;;7.87;3.10;;;21.40;39.90;;;;;;10546276;28;20230;-76
2022/06/04 01:07:49;;;;;;;3.50;3.20;;;21.40;40.10;;;;;;10557091;28;20775;-76
2022/06/04 01:13:04;;;;;;;7.53;2.87;;;21.30;39.50;;;;;;10545617;27;20230;-76
2022/06/04 01:18:18;;;;;;;5.27;3.00;;;21.20;39.80;;;;;;10538932;28;20227;-76
2022/06/04 01:23:49;;;;;;;2.20;2.10;;;21.10;39.80;;;;;;10560647;27;20241;-76
2022/06/04 01:29:00;;;;;;;3.67;3.37;;;21.00;39.60;;;;;;10555280;28;20231;-76
2022/06/04 01:34:07;;;;;;;18.80;4.90;;;20.90;40.30;;;;;;10558456;27;20240;-76
2022/06/04 01:39:17;;;;;;;4.85;4.50;;;20.90;40.70;;;;;;10556663;28;20238;-76
2022/06/04 01:44:25;;;;;;;4.97;4.57;;;20.80;40.70;;;;;;10560609;27;20222;-76
2022/06/04 01:49:34;;;;;;;4.10;3.80;;;20.80;41.00;;;;;;10562431;28;20226;-76
2022/06/04 01:54:40;;;;;;;3.67;3.47;;;20.70;41.10;;;;;;10554893;28;20737;-76
2022/06/04 01:59:49;;;;;;;21.00;4.73;;;20.70;40.80;;;;;;10559974;28;20621;-76
2022/06/04 02:04:57;;;;;;;4.53;3.37;;;20.70;41.30;;;;;;10562415;28;20235;-76
2022/06/04 02:10:05;;;;;;;22.93;5.10;;;20.60;41.00;;;;;;10559229;27;20220;-76
2022/06/04 02:15:13;;;;;;;5.13;4.77;;;20.60;41.50;;;;;;10550529;28;20730;-76
2022/06/04 02:20:16;;;;;;;16.00;5.17;;;20.50;41.60;;;;;;10529786;27;20215;-76
2022/06/04 02:25:21;;;;;;;17.83;5.47;;;20.40;40.80;;;;;;10514169;28;20223;-76
2022/06/04 02:30:32;;;;;;;25.63;5.53;;;20.40;40.90;;;;;;10516647;28;20223;-76
2022/06/04 02:35:45;;;;;;;12.70;5.10;;;20.30;42.00;;;;;;10516824;28;20227;-76
2022/06/04 02:40:55;;;;;;;5.67;5.23;;;20.20;42.30;;;;;;10513239;28;20232;-76
2022/06/04 02:46:06;;;;;;;21.53;5.73;;;20.10;42.10;;;;;;10513127;28;20239;-76
2022/06/04 02:51:14;;;;;;;22.43;5.57;;;20.00;42.70;;;;;;10513654;28;20609;-76
2022/06/04 02:56:21;;;;;;;5.83;5.43;;;20.00;42.20;;;;;;10511168;28;20230;-76
2022/06/04 03:01:27;;;;;;;11.03;5.30;;;19.90;42.20;;;;;;10510071;28;20235;-76
2022/06/04 03:06:32;;;;;;;9.60;4.80;;;19.90;42.60;;;;;;10506651;28;20769;-76
2022/06/04 03:11:42;;;;;;;9.60;4.90;;;19.90;41.90;;;;;;10516123;28;20584;-76
2022/06/04 03:16:49;;;;;;;12.40;4.30;;;19.70;43.40;;;;;;10518474;28;20215;-76
2022/06/04 03:21:52;;;;;;;5.83;4.53;;;19.70;42.80;;;;;;10516327;28;20223;-76
2022/06/04 03:26:56;;;;;;;4.60;4.30;;;19.60;41.90;;;;;;10516289;28;20695;-75
2022/06/04 03:32:01;;;;;;;6.43;3.43;;;19.60;42.10;;;;;;10513673;28;20703;-76
2022/06/04 03:37:05;;;;;;;5.70;3.53;;;19.50;42.90;;;;;;10517097;28;20607;-75
2022/06/04 03:42:08;;;;;;;15.27;4.00;;;19.50;42.40;;;;;;10504715;28;20220;-75
2022/06/04 03:47:13;;;;;;;14.83;4.30;;;19.40;42.40;;;;;;10518588;28;20774;-75
2022/06/04 03:52:16;;;;;;;8.60;4.00;;;19.30;43.20;;;;;;10516075;28;20219;-76
2022/06/04 04:02:42;;;;;;;7.20;4.17;;;19.20;43.00;;;;;;10512112;28;20240;-75
2022/06/04 04:07:45;;;;;;;4.40;4.10;;;19.20;44.10;;;;;;10509767;28;20231;-75
2022/06/04 04:12:48;;;;;;;4.50;4.17;;;19.20;43.30;;;;;;10511686;28;20241;-76
2022/06/04 04:17:53;;;;;;;22.57;4.73;;;19.10;43.20;;;;;;10509748;28;20335;-75
2022/06/04 04:22:58;;;;;;;13.47;4.00;;;19.10;44.10;;;;;;10504872;28;21103;-75
2022/06/04 04:28:01;;;;;;;4.07;3.87;;;19.00;43.70;;;;;;10516396;28;20705;-75
2022/06/04 04:33:07;;;;;;;18.70;4.57;;;18.90;43.90;;;;;;10508890;28;20234;-75
2022/06/04 04:38:11;;;;;;;27.97;4.50;;;18.90;44.90;;;;;;10502941;28;20234;-75
2022/06/04 04:43:14;;;;;;;5.67;3.77;;;18.90;43.90;;;;;;10502147;28;20235;-75
2022/06/04 04:48:19;;;;;;;5.33;4.40;;;18.90;44.00;;;;;;10499850;28;20222;-75
2022/06/04 04:53:23;;;;;;;9.87;4.53;;;18.90;45.10;;;;;;10506987;28;20235;-75
2022/06/04 04:58:26;;;;;;;6.80;4.90;;;18.90;44.50;;;;;;10514092;28;20223;-75
2022/06/04 05:03:30;;;;;;;5.23;4.77;;;18.90;44.70;;;;;;10508641;28;20228;-75
2022/06/04 05:08:34;;;;;;;5.03;4.67;;;19.00;45.70;;;;;;10507324;28;20714;-75
2022/06/04 05:13:37;;;;;;;5.00;4.60;;;19.00;45.00;;;;;;10510747;28;20227;-75
2022/06/04 05:18:42;;;;;;;5.80;4.90;;;19.10;45.30;;;;;;10513082;28;20247;-75
2022/06/04 05:23:45;;;;;;;4.90;4.60;;;19.20;46.10;;;;;;10511593;28;20227;-75
2022/06/04 05:28:48;;;;;;;4.50;4.20;;;19.30;45.50;;;;;;10510770;28;20227;-75
2022/06/04 05:33:53;;;;;;;4.70;4.40;;;19.30;45.60;;;;;;10510749;28;20231;-75
2022/06/04 05:38:56;;;;;;;4.90;4.60;;;19.40;46.70;;;;;;10507255;28;20330;-75
2022/06/04 05:43:59;;;;;;;4.27;3.97;;;19.50;45.90;;;;;;10510513;28;20235;-75
2022/06/04 05:49:04;;;;;;;5.93;5.43;;;19.60;46.10;;;;;;10556928;27;20237;-76
2022/06/04 05:54:08;;;;;;;6.20;5.70;;;19.70;47.00;;;;;;10553616;27;20226;-76
2022/06/04 05:59:14;;;;;;;5.60;5.20;;;19.80;46.30;;;;;;10558871;27;20231;-76
2022/06/04 06:04:20;;;;;;;5.63;5.13;;;19.90;46.60;;;;;;10552293;27;20227;-76
2022/06/04 06:09:25;;;;;;;6.00;5.60;;;20.00;47.20;;;;;;10548974;27;20326;-76
2022/06/04 06:14:28;;;;;;;5.77;5.33;;;20.10;46.70;;;;;;10562583;27;20739;-76
2022/06/04 06:19:33;;;;;;;6.47;6.00;;;20.20;46.50;;;;;;10561704;27;20239;-76
2022/06/04 06:24:36;;;;;;;6.23;5.83;;;20.30;47.20;;;;;;10557403;27;20230;-76
2022/06/04 06:29:39;;;;;;;5.93;5.53;;;20.40;46.40;;;;;;10557097;27;21030;-76
2022/06/04 06:34:44;;;;;;;5.70;5.30;;;20.50;46.40;;;;;;10514038;28;20236;-75
2022/06/04 06:39:47;;;;;;;6.70;5.20;;;20.60;47.20;;;;;;10514147;28;20583;-76
2022/06/04 06:44:51;;;;;;;5.30;4.93;;;20.70;46.70;;;;;;10514389;28;20242;-76
2022/06/04 06:49:56;;;;;;;5.90;5.50;;;20.80;46.70;;;;;;10508108;28;20231;-76
2022/06/04 06:54:59;;;;;;;5.80;5.40;;;20.80;47.70;;;;;;10518293;28;20242;-76
2022/06/04 07:00:04;;;;;;;5.07;4.67;;;20.90;46.70;;;;;;10518707;28;20228;-76
2022/06/04 07:05:10;;;;;;;5.90;5.50;;;20.90;46.90;;;;;;10517321;28;20249;-73
2022/06/04 07:10:14;;;;;;;6.17;5.67;;;21.00;48.10;;;;;;10532996;28;20306;-73
2022/06/04 07:15:18;;;;;;;6.00;5.57;;;21.00;47.00;;;;;;10532845;28;20266;-73
2022/06/04 07:20:22;;;;;;;5.53;5.13;;;21.10;46.90;;;;;;10532335;28;20227;-73
2022/06/04 07:25:26;;;;;;;5.93;5.53;;;21.10;47.60;;;;;;10532277;28;20239;-73
2022/06/04 07:30:30;;;;;;;5.23;4.93;;;21.10;47.40;;;;;;10532373;28;20896;-73
2022/06/04 07:35:34;;;;;;;5.67;5.20;;;21.10;47.30;;;;;;10531831;28;20365;-73
2022/06/04 07:40:39;;;;;;;5.70;5.30;;;21.20;48.00;;;;;;10531944;28;20228;-73
2022/06/04 07:45:42;;;;;;;5.70;5.30;;;21.30;48.10;;;;;;10531555;28;20240;-73
2022/06/04 07:50:47;;;;;;;5.50;5.10;;;21.40;47.70;;;;;;10531377;28;20254;-73
2022/06/04 07:55:50;;;;;;;4.87;4.47;;;21.50;48.50;;;;;;10531325;28;20643;-73
2022/06/04 08:01:01;;;;;;;4.57;4.27;;;21.60;48.20;;;;;;10531151;28;20673;-73
2022/06/04 08:06:06;;;;;;;4.07;3.87;;;21.70;48.40;;;;;;10530733;28;20249;-73
2022/06/04 08:16:26;;;;;;;3.87;3.40;;;21.90;48.20;;;;;;10530045;28;20223;-73
2022/06/04 08:21:32;;;;;;;3.70;3.40;;;22.00;48.30;;;;;;10530299;28;20231;-73
2022/06/04 08:26:36;;;;;;;3.80;3.50;;;22.10;48.80;;;;;;10530049;28;20239;-73
2022/06/04 08:31:39;;;;;;;3.00;2.80;;;22.30;48.00;;;;;;10528798;28;20735;-73
2022/06/04 08:36:44;;;;;;;3.00;2.80;;;22.40;47.80;;;;;;10529674;28;20227;-73
2022/06/04 08:42:00;;;;;;;3.40;3.20;;;22.60;47.60;;;;;;10529583;28;20406;-73
2022/06/04 08:47:12;;;;;;;3.30;3.10;;;22.80;48.20;;;;;;10487510;28;20251;-73
2022/06/04 08:52:20;;;;;;;3.80;3.40;;;23.00;47.60;;;;;;10507232;28;20582;-73
2022/06/04 08:57:34;;;;;;;5.67;4.07;;;23.20;47.60;;;;;;10514857;28;20235;-73
2022/06/04 09:02:52;;;;;;;4.07;3.80;;;23.20;46.90;;;;;;10487362;28;20243;-73
2022/06/04 09:08:03;;;;;;;4.77;4.37;;;23.30;47.20;;;;;;10529107;28;20227;-73
2022/06/04 09:13:13;;;;;;;6.37;5.90;;;23.50;47.70;;;;;;10528628;28;20234;-73
2022/06/04 09:18:19;;;;;;;6.00;5.50;;;23.50;47.70;;;;;;10529022;28;20222;-73
2022/06/04 09:23:31;;;;;;;5.40;5.00;;;23.60;47.10;;;;;;10528778;28;20230;-73
2022/06/04 09:28:45;;;;;;;6.00;5.60;;;23.70;47.50;;;;;;10528925;28;20228;-73
2022/06/04 09:33:56;;;;;;;6.13;5.70;;;23.80;47.50;;;;;;10528663;28;20227;-73
2022/06/04 09:39:03;;;;;;;6.00;5.60;;;23.80;47.00;;;;;;10528372;28;20226;-73
2022/06/04 09:44:14;;;;;;;7.07;6.50;;;23.80;45.90;;;;;;10489821;28;20247;-73
2022/06/04 09:49:30;;;;;;;7.07;6.57;;;23.80;46.10;;;;;;10494469;28;20255;-73
2022/06/04 09:54:34;;;;;;;7.20;6.60;;;23.80;46.40;;;;;;10494133;28;20952;-73
2022/06/04 09:59:39;;;;;;;6.07;5.67;;;23.90;46.10;;;;;;10499797;28;20229;-73
2022/06/04 10:04:44;;;;;;;7.23;6.73;;;23.90;46.00;;;;;;10535456;28;20711;-73
2022/06/04 10:09:56;;;;;;;6.50;6.00;;;24.10;46.00;;;;;;10535523;28;20231;-73
2022/06/04 10:15:01;;;;;;;6.47;6.03;;;24.20;45.40;;;;;;10535315;28;20284;-73
2022/06/04 10:20:05;;;;;;;6.60;6.10;;;24.40;45.40;;;;;;10534953;28;20231;-73
2022/06/04 10:25:22;;;;;;;6.50;6.00;;;24.60;45.30;;;;;;10534736;27;20228;-73
2022/06/04 10:30:29;;;;;;;6.17;5.77;;;24.70;44.70;;;;;;10497955;28;20220;-73
2022/06/04 10:35:49;;;;;;;6.30;5.73;;;24.90;44.30;;;;;;10492611;28;20239;-73
2022/06/04 10:41:04;;;;;;;6.07;5.67;;;25.10;43.60;;;;;;10492474;28;20226;-73
2022/06/04 10:46:30;;;;;;;6.97;6.47;;;25.20;43.20;;;;;;10528451;28;20314;-73
2022/06/04 10:51:47;;;;;;;5.97;5.47;;;25.30;43.30;;;;;;10518236;28;20240;-73
2022/06/04 10:56:59;;;;;;;6.77;6.20;;;25.50;43.20;;;;;;10533240;28;20297;-73
2022/06/04 11:02:14;;;;;;;6.10;5.60;;;25.60;42.40;;;;;;10533013;28;20253;-73
2022/06/04 11:07:40;;;;;;;5.53;5.03;;;25.70;42.50;;;;;;10534640;27;20277;-73
2022/06/04 11:12:50;;;;;;;5.87;5.27;;;25.90;42.60;;;;;;10532884;28;20238;-73
2022/06/04 11:18:02;;;;;;;5.63;5.23;;;26.00;41.60;;;;;;10532685;28;20235;-73
2022/06/04 11:23:20;;;;;;;5.57;5.07;;;26.10;41.90;;;;;;10532068;28;20721;-73
2022/06/04 11:28:27;;;;;;;6.60;5.37;;;26.30;41.80;;;;;;10532335;28;20227;-73
2022/06/04 11:33:42;;;;;;;6.07;5.67;;;26.40;42.60;;;;;;10532148;28;20235;-73
2022/06/04 11:39:05;;;;;;;5.70;5.20;;;26.50;41.90;;;;;;10568771;27;20226;-73
2022/06/04 11:44:34;;;;;;;5.73;5.30;;;26.70;42.00;;;;;;10571646;28;20844;-73
2022/06/04 11:49:45;;;;;;;6.83;6.27;;;26.90;41.80;;;;;;10573548;27;20680;-73
2022/06/04 11:55:27;;;;;;;5.40;5.00;;;27.00;41.10;;;;;;10573281;28;20237;-73
2022/06/04 12:00:36;;;;;;;5.70;4.80;;;27.10;41.70;;;;;;10483217;28;20710;-73
2022/06/04 12:05:47;;;;;;;4.57;4.17;;;27.20;40.80;;;;;;10553560;28;20235;-73
2022/06/04 12:10:59;;;;;;;5.40;4.93;;;27.30;40.30;;;;;;10572655;28;20233;-73
2022/06/04 12:16:10;;;;;;;5.93;5.43;;;27.50;40.00;;;;;;10572305;28;20227;-73
2022/06/04 12:26:48;;;;;;;4.93;4.53;;;27.80;39.60;;;;;;10571901;28;20722;-73
2022/06/04 12:31:59;;;;;;;4.67;4.27;;;27.90;39.70;;;;;;10567957;28;20275;-73
2022/06/04 12:37:04;;;;;;;4.83;4.53;;;28.00;39.50;;;;;;10571363;28;20223;-73
2022/06/04 12:42:15;;;;;;;5.00;4.70;;;28.10;39.80;;;;;;10571897;27;20231;-73
2022/06/04 12:47:24;;;;;;;5.03;4.57;;;28.20;39.00;;;;;;10571587;27;20246;-73
2022/06/04 12:52:39;;;;;;;4.27;3.90;;;28.30;38.60;;;;;;10571097;28;20227;-73
2022/06/04 12:57:47;;;;;;;4.87;3.80;;;28.30;37.90;;;;;;10571002;28;20223;-73
2022/06/04 13:03:13;;;;;;;4.20;3.90;;;28.30;38.00;;;;;;10570806;28;20235;-73
2022/06/04 13:08:30;;;;;;;4.37;4.07;;;28.40;37.70;;;;;;10553256;27;20226;-73
2022/06/04 13:13:46;;;;;;;4.37;4.07;;;28.40;37.00;;;;;;10573969;28;20235;-73
2022/06/04 13:19:14;;;;;;;4.80;4.40;;;28.50;36.80;;;;;;10570965;28;20601;-72
2022/06/04 13:24:22;;;;;;;4.40;4.10;;;28.60;36.60;;;;;;10569426;27;20222;-73
2022/06/04 13:29:28;;;;;;;4.50;4.00;;;28.70;36.70;;;;;;10600064;27;20250;-73
2022/06/04 13:34:34;;;;;;;4.57;4.20;;;28.70;35.70;;;;;;10586130;27;20241;-73
2022/06/04 13:39:38;;;;;;;4.43;4.03;;;28.70;35.30;;;;;;10578592;28;20234;-73
2022/06/04 13:44:43;;;;;;;4.77;4.47;;;28.70;36.20;;;;;;10579212;27;20235;-73
2022/06/04 13:49:51;;;;;;;4.60;4.20;;;28.80;35.60;;;;;;10578076;28;20745;-73
2022/06/04 13:54:57;;;;;;;4.70;4.37;;;28.90;36.00;;;;;;10585691;27;20239;-73
2022/06/04 14:00:04;;;;;;;4.60;4.20;;;29.00;35.20;;;;;;10562445;27;20230;-72
2022/06/04 14:10:38;;;;;;;4.60;4.20;;;29.10;33.30;;;;;;10548044;27;20235;-73
2022/06/04 14:15:59;;;;;;;5.00;4.70;;;29.20;34.60;;;;;;10531681;28;20234;-73
2022/06/04 14:21:16;;;;;;;4.87;4.50;;;29.20;33.50;;;;;;10543648;27;20255;-73
2022/06/04 14:26:29;;;;;;;6.17;5.57;;;29.30;33.50;;;;;;10545116;28;20227;-73
2022/06/04 14:31:44;;;;;;;6.00;5.47;;;29.40;32.80;;;;;;10541378;28;20228;-73
2022/06/04 14:36:52;;;;;;;5.97;5.53;;;29.40;32.90;;;;;;10525238;28;20227;-73
2022/06/04 14:42:15;;;;;;;6.27;5.77;;;29.40;33.20;;;;;;10543358;27;20711;-73
2022/06/04 14:47:36;;;;;;;5.80;5.33;;;29.40;33.00;;;;;;10538487;27;20223;-73
2022/06/04 14:52:45;;;;;;;6.00;5.60;;;29.50;32.90;;;;;;10562297;28;20901;-73
2022/06/04 14:58:12;;;;;;;5.30;4.90;;;29.50;32.20;;;;;;10564314;27;20238;-73
2022/06/04 15:03:42;;;;;;;4.90;4.60;;;29.50;32.90;;;;;;10574373;27;20230;-73
2022/06/04 15:09:01;;;;;;;5.20;4.80;;;29.60;32.50;;;;;;10559908;28;20227;-73
2022/06/04 15:14:14;;;;;;;4.70;4.20;;;29.50;32.30;;;;;;10557627;28;20244;-73
2022/06/04 15:19:32;;;;;;;5.10;4.60;;;29.60;32.60;;;;;;10565483;27;20231;-73
2022/06/04 15:24:57;;;;;;;4.30;4.00;;;29.50;32.90;;;;;;10570673;27;20234;-73
2022/06/04 15:35:31;;;;;;;3.83;3.63;;;29.50;32.50;;;;;;10522014;28;20227;-73
2022/06/04 15:41:12;;;;;;;3.17;2.87;;;29.60;33.60;;;;;;10532510;28;20260;-73
2022/06/04 15:46:23;;;;;;;4.50;3.30;;;29.60;32.80;;;;;;10561842;27;20686;-73
2022/06/04 15:57:00;;;;;;;3.53;3.27;;;29.60;31.30;;;;;;10565667;27;20234;-73
2022/06/04 16:02:18;;;;;;;3.13;2.93;;;29.60;32.60;;;;;;10564702;28;20254;-72
2022/06/04 16:07:42;;;;;;;3.20;3.00;;;29.50;31.90;;;;;;10570115;27;20232;-73
2022/06/04 16:13:08;;;;;;;4.03;3.10;;;29.70;31.50;;;;;;10569874;27;20852;-73
2022/06/04 16:18:24;;;;;;;3.30;3.10;;;29.70;31.30;;;;;;10557253;27;20223;-73
2022/06/04 16:23:37;;;;;;;3.10;2.90;;;29.60;31.30;;;;;;10576228;27;20735;-73
2022/06/04 16:28:51;;;;;;;3.03;2.80;;;29.50;31.20;;;;;;10558386;28;20229;-74
2022/06/04 16:33:58;;;;;;;3.00;2.80;;;29.50;31.20;;;;;;10537107;28;20242;-74
2022/06/04 16:39:01;;;;;;;2.73;2.53;;;29.50;31.20;;;;;;10531371;28;20231;-74
2022/06/04 16:44:18;;;;;;;2.90;2.70;;;29.50;31.20;;;;;;10522289;28;20226;-74
2022/06/04 16:54:44;;;;;;;2.70;2.50;;;29.40;31.20;;;;;;10539840;27;20689;-74
2022/06/04 16:59:50;;;;;;;2.50;2.40;;;29.40;31.10;;;;;;10540808;27;20227;-74
2022/06/04 17:05:01;;;;;;;2.53;2.37;;;29.40;31.10;;;;;;10540928;28;20227;-74
2022/06/04 17:10:23;;;;;;;3.90;3.60;;;29.40;31.00;;;;;;10541728;27;20249;-74
2022/06/04 17:15:35;;;;;;;2.97;2.77;;;29.50;30.80;;;;;;10532172;27;20639;-74
2022/06/04 17:20:49;;;;;;;2.83;2.60;;;29.50;30.80;;;;;;10535705;27;20232;-74
2022/06/04 17:26:11;;;;;;;2.23;2.13;;;29.50;30.50;;;;;;10536104;27;20239;-74
2022/06/04 17:31:20;;;;;;;2.47;2.37;;;29.40;30.10;;;;;;10532560;28;20669;-73
2022/06/04 17:36:35;;;;;;;3.07;2.87;;;29.40;30.30;;;;;;10536743;27;20262;-74
2022/06/04 17:41:44;;;;;;;3.07;2.87;;;29.30;30.60;;;;;;10539484;28;20805;-76
2022/06/04 17:46:48;;;;;;;2.70;2.50;;;29.30;30.80;;;;;;10540455;28;20233;-76
2022/06/04 17:51:52;;;;;;;3.30;3.10;;;29.40;31.00;;;;;;10543616;28;20712;-76
2022/06/04 17:56:55;;;;;;;3.83;3.60;;;29.30;31.10;;;;;;10541077;28;20237;-76
2022/06/04 18:02:00;;;;;;;3.30;3.10;;;29.30;31.10;;;;;;10545958;28;20223;-76
2022/06/04 18:07:05;;;;;;;3.87;3.67;;;29.20;31.00;;;;;;10544562;27;20253;-76
2022/06/04 18:12:08;;;;;;;4.10;3.70;;;29.10;30.90;;;;;;10551618;27;20219;-76
2022/06/04 18:17:13;;;;;;;3.83;3.63;;;29.00;30.90;;;;;;10546156;27;20234;-76
2022/06/04 18:22:17;;;;;;;4.13;3.83;;;28.90;30.80;;;;;;10550913;27;20974;-76
2022/06/04 18:27:20;;;;;;;4.17;3.87;;;28.80;30.70;;;;;;10547587;27;21030;-76
2022/06/04 18:32:26;;;;;;;4.80;4.40;;;28.70;30.60;;;;;;10553679;27;20695;-76
2022/06/04 18:37:29;;;;;;;4.83;4.47;;;28.60;30.60;;;;;;10546983;27;20753;-76
2022/06/04 18:58:41;;;;;;;4.77;4.47;;;28.00;31.60;;;;;;10549244;28;20237;-76
2022/06/04 19:03:46;;;;;;;4.60;4.27;;;27.80;31.80;;;;;;10548077;27;20231;-73
2022/06/04 19:08:50;;;;;;;5.37;4.97;;;27.70;31.80;;;;;;10548136;27;20236;-73
2022/06/04 19:13:53;;;;;;;5.20;4.90;;;27.60;32.00;;;;;;10545210;28;20235;-73
2022/06/04 19:18:59;;;;;;;4.87;4.47;;;27.40;32.10;;;;;;10543047;27;20228;-73
2022/06/04 19:29:24;;;;;;;4.20;3.90;;;27.20;32.70;;;;;;10550965;28;20226;-75
2022/06/04 19:34:28;;;;;;;5.17;4.67;;;27.20;32.90;;;;;;10548045;27;20824;-75
2022/06/04 19:39:32;;;;;;;4.70;4.40;;;27.10;33.20;;;;;;10544536;28;20237;-75
2022/06/04 19:44:35;;;;;;;4.50;4.20;;;27.10;33.20;;;;;;10559110;28;20241;-75
2022/06/04 19:49:42;;;;;;;5.03;4.63;;;27.00;33.20;;;;;;10554789;28;20246;-75
2022/06/04 20:00:09;;;;;;;5.33;4.93;;;26.90;33.40;;;;;;10549413;27;20222;-75
2022/06/04 20:05:13;;;;;;;5.30;4.90;;;26.80;33.50;;;;;;10548397;27;20231;-75
2022/06/04 20:10:17;;;;;;;4.97;4.67;;;26.70;33.70;;;;;;10551940;27;20726;-75
2022/06/04 20:15:20;;;;;;;8.83;5.03;;;26.60;33.70;;;;;;10545607;27;20607;-75
2022/06/04 20:20:25;;;;;;;5.00;4.70;;;26.60;34.00;;;;;;10552817;27;20233;-75
2022/06/04 20:25:28;;;;;;;4.50;4.20;;;26.50;34.20;;;;;;10556904;27;20241;-75
2022/06/04 20:30:32;;;;;;;5.13;4.63;;;26.40;33.90;;;;;;10553444;27;20241;-75
2022/06/04 20:35:38;;;;;;;4.57;4.27;;;26.30;34.10;;;;;;10552796;27;20234;-75
2022/06/04 20:40:42;;;;;;;5.10;4.70;;;26.20;34.20;;;;;;10548768;27;20331;-75
2022/06/04 20:45:46;;;;;;;4.90;4.50;;;26.20;34.30;;;;;;10554678;27;20236;-75
2022/06/04 20:50:50;;;;;;;5.50;5.10;;;26.10;34.30;;;;;;10556764;27;20222;-75
2022/06/04 20:55:54;;;;;;;5.17;4.87;;;26.10;34.50;;;;;;10558100;27;20235;-75
2022/06/04 21:00:57;;;;;;;5.60;5.20;;;26.00;34.50;;;;;;10552438;27;20226;-75
2022/06/04 21:06:02;;;;;;;5.50;5.10;;;25.90;34.50;;;;;;10550943;27;20296;-75
2022/06/04 21:11:06;;;;;;;6.20;5.80;;;25.80;34.80;;;;;;10515451;27;20223;-75
2022/06/04 21:16:14;;;;;;;5.23;4.93;;;25.70;34.60;;;;;;10512504;28;20223;-75
2022/06/04 21:21:20;;;;;;;5.63;5.23;;;25.70;35.00;;;;;;10510741;28;20233;-75
2022/06/04 21:26:31;;;;;;;5.70;5.20;;;25.60;35.20;;;;;;10506521;28;20704;-75
2022/06/04 21:31:37;;;;;;;5.90;5.40;;;25.50;35.10;;;;;;10513142;28;20227;-75
2022/06/04 21:42:03;;;;;;;6.97;6.40;;;25.20;35.30;;;;;;10531543;27;20223;-75
2022/06/04 21:47:08;;;;;;;6.93;6.33;;;25.20;35.40;;;;;;10560438;28;20228;-75
2022/06/04 21:52:12;;;;;;;6.20;5.80;;;25.10;35.40;;;;;;10557552;28;20224;-75
2022/06/04 21:57:16;;;;;;;5.93;5.43;;;25.00;35.60;;;;;;10555282;27;20224;-75
2022/06/04 22:02:19;;;;;;;6.37;5.90;;;24.90;35.40;;;;;;10554870;28;20227;-75
2022/06/04 22:07:25;;;;;;;5.93;5.43;;;24.80;35.60;;;;;;10563338;27;20238;-75
2022/06/04 22:12:29;;;;;;;5.67;5.27;;;24.70;35.80;;;;;;10557437;27;20234;-75
2022/06/04 22:17:32;;;;;;;5.37;4.90;;;24.70;35.60;;;;;;10553896;28;20310;-75
2022/06/04 22:22:36;;;;;;;4.90;4.60;;;24.60;35.70;;;;;;10560601;27;20231;-75
2022/06/04 22:27:41;;;;;;;5.33;4.93;;;24.50;36.10;;;;;;10553755;27;20235;-75
2022/06/04 22:32:45;;;;;;;6.40;6.00;;;24.40;36.00;;;;;;10563064;27;20231;-75
2022/06/04 22:37:49;;;;;;;6.43;5.87;;;24.40;36.20;;;;;;10555621;27;20414;-75
2022/06/04 22:42:52;;;;;;;6.37;5.77;;;24.20;36.20;;;;;;10556522;27;20233;-75
2022/06/04 22:47:56;;;;;;;14.67;13.27;;;24.10;36.30;;;;;;10555202;27;20230;-75
2022/06/04 22:53:01;;;;;;;13.13;11.93;;;23.90;36.40;;;;;;10554301;27;20244;-75
2022/06/04 22:58:04;;;;;;;10.70;9.80;;;23.90;36.80;;;;;;10518878;28;20235;-75
2022/06/04 23:03:08;;;;;;;9.20;8.40;;;23.70;36.50;;;;;;10522352;27;20228;-75
2022/06/04 23:08:13;;;;;;;7.43;6.83;;;23.60;36.60;;;;;;10547291;27;20793;-75
2022/06/04 23:23:59;;;;;;;6.53;6.13;;;23.40;37.00;;;;;;10544941;27;20238;-73
2022/06/04 23:29:04;;;;;;;6.43;5.83;;;23.40;37.40;;;;;;10533922;27;20321;-74
2022/06/04 23:34:08;;;;;;;6.87;6.17;;;23.20;37.20;;;;;;10553359;27;20310;-73
2022/06/04 23:39:12;;;;;;;6.63;6.13;;;23.10;37.30;;;;;;10553497;27;20307;-73
2022/06/04 23:44:15;;;;;;;6.33;5.93;;;23.10;37.80;;;;;;10549764;27;20235;-74
2022/06/04 23:49:19;;;;;;;6.53;6.03;;;23.00;37.50;;;;;;10548802;28;20227;-73
2022/06/04 23:54:23;;;;;;;6.67;6.17;;;22.90;37.50;;;;;;10552006;27;20256;-74
2022/06/04 23:59:27;;;;;;;6.77;6.13;;;22.80;37.90;;;;;;10546038;28;20219;-73
